Galesburg, IL (61401)

2:42 PM CDT on July 29, 2016 (GMT -0500)
N9VPV | | Change Station

Elev 777 ft 40.95 °N, 90.39 °W | Updated 41 seconds ago

Scattered Clouds
Scattered Clouds
78.7 °F
Feels Like 81 °F
N
4.0
Wind Variable Wind from NW
Gusts 5.0 mph

Today
High -- | Low -- °F
--% Chance of Precip.
Yesterday
High -- | Low -- °F
Precip. -- in
Pressure 29.94 in
Visibility 10.0 miles
Clouds Scattered Clouds 2300 ft
Heat Index 81 °F
Dew Point 69 °F
Humidity 72%
Rainfall 0.00 in
Snow Depth Not available.
5:55 AM 8:20 PM
Waning Crescent, 19% visible
METAR KGBG 291935Z AUTO 25006KT 10SM SCT023 26/19 A2994 RMK AO2 T02560193
Pressure 29.94 in
Visibility 10.0 miles
Clouds Scattered Clouds 2300 ft
Heat Index 81 °F
Dew Point 69 °F
Humidity 72%
Rainfall 0.00 in
Snow Depth Not available.
5:55 AM 8:20 PM
Waning Crescent, 19% visible
METAR KGBG 291935Z AUTO 25006KT 10SM SCT023 26/19 A2994 RMK AO2 T02560193

10-Day Weather Forecast

Almanac

Astronomy

Jul. 29, 2016 Rise Set
Actual Time
Civil Twilight
Nautical Twilight
Astronomical Twilight
Moon
Length of Visible Light
Length of Day
Tomorrow will be .
, % of the Moon is Illuminated

Today's Extremes

State Highs State Lows

Community

WunderPhotos

Upload Photos

1,928,401 photos uploaded!

WunderBlog® & News

Nearby

Air Quality

  Air Quality AQ Index Pollutant
Not available.

Snow Depth

Station Depth Elevation

Earthquake Activity

City Distance Mag. Time & Date
Minimum magnitude displayed is 2.5.

Coastal Water Temperatures

Place Temperature

Stations

Nearby Weather Stations

Station Location Temp. Windchill Dew Point Humidity Wind Precip. Elev Updated Type
                   

Watches & Warnings

There are currently no watches in effect.